Time;durP1;ratioP1;P1;durP2;ratioP2;P2;SDS_P1;SDS_P2;PMS_P1;PMS_P2;Temp;Humidity;BMP_temperature;BMP_pressure;BME280_temperature;BME280_humidity;BME280_pressure;Samples;Min_cycle;Max_cycle;Signal;HPM_P1;HPM_P2
2021/11/25 00:01:28;;;;;;;9.68;7.05;;;;;;;2.76;69.84;100115.16;4969089;28;19930;-82
2021/11/25 00:03:58;;;;;;;8.90;6.47;;;;;;;2.81;69.47;100115.19;4959035;29;20048;-82
2021/11/25 00:06:25;;;;;;;7.90;6.43;;;;;;;2.83;69.78;100121.25;4959078;29;20062;-83
2021/11/25 00:08:52;;;;;;;8.55;6.20;;;;;;;2.81;69.27;100114.34;4964050;28;20051;-82
2021/11/25 00:11:20;;;;;;;7.88;6.22;;;;;;;2.78;69.85;100118.47;4968830;28;20393;-82
2021/11/25 00:13:47;;;;;;;9.73;6.35;;;;;;;2.82;69.50;100118.78;4959439;29;20051;-82
2021/11/25 00:16:14;;;;;;;9.23;5.93;;;;;;;2.80;69.63;100115.47;4969910;28;20054;-82
2021/11/25 00:18:41;;;;;;;10.93;6.60;;;;;;;2.76;70.39;100104.19;4970637;28;20497;-83
2021/11/25 00:21:10;;;;;;;11.27;7.25;;;;;;;2.79;70.56;100108.31;4958067;28;20542;-82
2021/11/25 00:23:40;;;;;;;8.32;6.78;;;;;;;2.82;70.99;100108.59;4959242;28;20062;-82
2021/11/25 00:26:08;;;;;;;;;;;;;;;2.78;71.27;100101.97;4959328;29;20059;-83
2021/11/25 00:28:35;;;;;;;9.43;6.75;;;;;;;2.85;70.54;100091.53;4973478;28;20363;-82
2021/11/25 00:31:03;;;;;;;8.15;6.32;;;;;;;2.95;71.00;100090.72;4971930;28;20062;-82
2021/11/25 00:33:31;;;;;;;8.90;6.03;;;;;;;3.04;70.72;100082.75;4947864;29;20059;-83
2021/11/25 00:35:59;;;;;;;9.20;7.35;;;;;;;3.15;70.61;100083.59;4958377;28;20051;-82
2021/11/25 00:38:28;;;;;;;8.90;6.45;;;;;;;3.25;71.41;100075.31;4959496;28;20055;-82
2021/11/25 00:40:55;;;;;;;8.93;6.13;;;;;;;3.31;70.75;100068.72;4958927;29;20051;-82
2021/11/25 00:43:23;;;;;;;8.38;6.20;;;;;;;3.38;70.94;100063.78;4973239;28;20058;-82
2021/11/25 00:45:51;;;;;;;8.00;6.22;;;;;;;3.48;71.18;100062.94;4958184;29;20058;-82
2021/11/25 00:48:18;;;;;;;8.15;6.32;;;;;;;3.60;70.95;100052.44;4948356;29;20106;-82
2021/11/25 00:50:47;;;;;;;6.68;5.22;;;;;;;3.69;70.37;100049.13;4958606;28;20051;-82
2021/11/25 00:53:15;;;;;;;6.88;5.68;;;;;;;3.83;70.40;100055.72;4975041;28;20062;-82
2021/11/25 00:55:43;;;;;;;8.25;5.60;;;;;;;3.89;69.90;100042.75;4977352;28;20059;-83
2021/11/25 00:58:11;;;;;;;7.03;5.53;;;;;;;3.98;69.70;100050.13;4960075;28;20354;-82
2021/11/25 01:00:40;;;;;;;8.50;5.70;;;;;;;4.10;69.39;100054.53;4957313;29;20055;-82
2021/11/25 01:03:07;;;;;;;8.23;5.57;;;;;;;4.19;69.18;100047.31;4961073;28;20054;-82
2021/11/25 01:05:35;;;;;;;8.38;5.40;;;;;;;4.22;69.04;100041.22;4957517;29;20074;-82
2021/11/25 01:08:02;;;;;;;9.05;5.68;;;;;;;4.31;68.82;100042.28;4958628;28;20058;-82
2021/11/25 01:10:29;;;;;;;7.30;5.55;;;;;;;4.40;68.26;100037.00;4957503;29;20058;-82
2021/11/25 01:12:59;;;;;;;7.63;5.43;;;;;;;4.50;68.29;100039.72;4957821;29;20055;-83
2021/11/25 01:15:32;;;;;;;7.22;5.50;;;;;;;4.58;68.20;100039.13;4959945;28;20063;-82
2021/11/25 01:18:01;;;;;;;7.47;5.50;;;;;;;4.64;67.85;100037.13;4971554;28;20051;-83
2021/11/25 01:20:29;;;;;;;7.22;5.97;;;;;;;4.70;67.19;100038.75;4947656;28;20048;-83
2021/11/25 01:22:58;;;;;;;6.88;5.30;;;;;;;4.65;66.94;100030.50;4973664;28;20050;-82
2021/11/25 01:25:25;;;;;;;7.10;5.70;;;;;;;4.74;67.45;100031.53;4975792;28;20061;-83
2021/11/25 01:27:53;;;;;;;7.55;6.07;;;;;;;4.80;67.62;100033.16;4957744;29;20066;-83
2021/11/25 01:30:21;;;;;;;7.95;5.90;;;;;;;4.85;67.33;100032.28;4959140;29;20051;-82
2021/11/25 01:32:49;;;;;;;9.27;6.00;;;;;;;4.87;67.25;100030.06;4972537;28;20058;-83
2021/11/25 01:35:17;;;;;;;9.82;6.90;;;;;;;4.92;67.28;100027.28;4957489;29;20063;-83
2021/11/25 01:37:44;;;;;;;8.07;5.93;;;;;;;5.01;67.06;100019.22;4957165;28;20055;-82
2021/11/25 01:40:14;;;;;;;8.88;6.30;;;;;;;4.87;66.99;100017.13;4974339;28;20054;-83
2021/11/25 01:42:42;;;;;;;7.63;5.55;;;;;;;5.01;66.76;100019.22;4975189;28;20432;-83
2021/11/25 01:45:11;;;;;;;7.20;5.60;;;;;;;5.01;66.84;100016.44;4977503;28;20059;-83
2021/11/25 01:47:44;;;;;;;8.80;6.10;;;;;;;5.07;66.73;100027.16;4967797;28;20055;-83
2021/11/25 01:50:12;;;;;;;8.13;5.55;;;;;;;5.12;66.96;100020.75;4958352;29;20055;-83
2021/11/25 01:52:40;;;;;;;7.85;5.78;;;;;;;5.09;66.63;100024.13;4957451;29;20063;-83
2021/11/25 01:55:08;;;;;;;8.90;5.53;;;;;;;5.12;67.21;100017.19;4957851;29;20059;-83
2021/11/25 01:57:35;;;;;;;9.73;6.05;;;;;;;5.15;67.13;100014.69;4957930;29;20070;-83
2021/11/25 02:00:13;;;;;;;8.90;6.43;;;;;;;5.26;66.58;100007.13;4956956;29;20493;-82
2021/11/25 02:02:42;;;;;;;8.20;6.07;;;;;;;5.23;66.38;100014.06;4951815;28;20393;-83
2021/11/25 02:05:10;;;;;;;8.20;5.87;;;;;;;5.19;66.40;100006.66;4963253;28;20420;-83
2021/11/25 02:07:37;;;;;;;6.18;5.15;;;;;;;5.22;65.90;100006.88;4958677;28;20408;-83
2021/11/25 02:10:07;;;;;;;7.40;5.85;;;;;;;5.13;66.32;100005.88;4972361;28;20070;-83
2021/11/25 02:12:34;;;;;;;7.85;6.15;;;;;;;5.06;66.37;99997.06;4956705;29;20055;-82
2021/11/25 02:15:02;;;;;;;8.38;6.63;;;;;;;5.12;66.36;100004.19;4959640;28;20063;-83
2021/11/25 02:17:29;;;;;;;6.30;5.60;;;;;;;5.11;66.16;99997.03;4949778;28;20055;-83
2021/11/25 02:19:59;;;;;;;9.68;6.30;;;;;;;5.13;66.69;99992.06;4957292;28;20054;-83
2021/11/25 02:22:30;;;;;;;10.07;6.25;;;;;;;4.97;67.50;99996.06;4968374;28;20051;-83
2021/11/25 02:24:58;;;;;;;7.75;5.93;;;;;;;5.13;66.69;99989.31;4956805;29;20058;-83
2021/11/25 02:27:25;;;;;;;6.75;5.63;;;;;;;5.07;66.70;99983.00;4959691;28;20046;-83
2021/11/25 02:29:52;;;;;;;7.55;6.53;;;;;;;5.16;66.18;99976.84;4967895;28;20166;-82
2021/11/25 02:32:31;;;;;;;6.78;5.88;;;;;;;5.13;66.11;99964.44;4957240;28;20055;-82
2021/11/25 02:35:00;;;;;;;7.60;6.57;;;;;;;5.02;66.61;99974.78;4965662;28;20519;-83
2021/11/25 02:37:29;;;;;;;8.57;6.90;;;;;;;5.05;66.95;99973.34;4975591;28;20058;-82
2021/11/25 02:39:56;;;;;;;10.13;6.70;;;;;;;5.05;66.83;99976.13;4970583;28;20054;-83
2021/11/25 02:42:24;;;;;;;10.68;7.20;;;;;;;5.02;66.65;99968.44;4956153;29;20489;-83
2021/11/25 02:44:52;;;;;;;9.30;6.22;;;;;;;5.05;66.68;99960.38;4956232;29;20059;-83
2021/11/25 02:47:20;;;;;;;9.05;7.43;;;;;;;5.06;66.77;99972.22;4956700;28;20054;-83
2021/11/25 02:49:47;;;;;;;9.75;7.68;;;;;;;5.13;67.03;99969.97;4960817;28;20065;-83
2021/11/25 02:52:14;;;;;;;10.18;7.55;;;;;;;5.08;67.17;99975.53;4975732;28;20050;-83
2021/11/25 02:54:44;;;;;;;8.57;6.97;;;;;;;5.20;67.04;99969.63;4974938;28;20057;-83
2021/11/25 02:57:14;;;;;;;;;;;;;;;5.27;66.77;99976.47;4943260;29;20560;-83
2021/11/25 02:59:42;;;;;;;10.20;7.30;;;;;;;5.34;66.84;99975.31;4937365;29;19923;-83
2021/11/25 03:02:09;;;;;;;8.68;7.20;;;;;;;5.35;67.08;99980.50;4965685;28;20055;-82
2021/11/25 03:04:36;;;;;;;6.93;6.00;;;;;;;5.44;66.89;99977.97;4956491;28;20051;-83
2021/11/25 03:07:04;;;;;;;10.02;6.18;;;;;;;5.50;66.91;99974.00;4954831;28;20063;-82
2021/11/25 03:09:31;;;;;;;9.93;6.38;;;;;;;5.57;66.80;99970.91;4936916;29;20074;-83
2021/11/25 03:12:00;;;;;;;8.13;6.55;;;;;;;5.56;66.62;99960.97;4964377;28;20065;-83
2021/11/25 03:14:27;;;;;;;8.37;6.17;;;;;;;5.60;66.94;99967.56;4975142;28;20053;-83
2021/11/25 03:16:55;;;;;;;8.32;6.65;;;;;;;5.63;66.58;99965.03;4941951;28;20444;-83
2021/11/25 03:19:22;;;;;;;8.27;6.30;;;;;;;5.67;66.86;99957.81;4956008;28;20051;-83
2021/11/25 03:21:49;;;;;;;8.82;7.00;;;;;;;5.72;66.47;99950.56;4956741;28;20396;-84
2021/11/25 03:24:17;;;;;;;8.60;6.40;;;;;;;5.69;66.59;99952.81;4956989;28;20058;-83
2021/11/25 03:26:44;;;;;;;8.82;6.78;;;;;;;5.68;66.10;99950.34;4955232;28;20074;-83
2021/11/25 03:29:13;;;;;;;9.00;7.25;;;;;;;5.58;65.96;99940.22;4954605;28;20047;-82
2021/11/25 03:31:40;;;;;;;9.77;7.45;;;;;;;5.60;66.30;99948.22;4962658;28;20415;-82
2021/11/25 03:34:07;;;;;;;7.75;6.47;;;;;;;5.69;66.34;99949.19;4958061;28;20051;-83
2021/11/25 03:36:35;;;;;;;8.85;6.82;;;;;;;5.66;66.17;99942.31;4974120;28;20051;-82
2021/11/25 03:39:03;;;;;;;9.10;6.70;;;;;;;5.75;66.00;99944.44;4979731;28;20480;-83
2021/11/25 03:41:30;;;;;;;11.52;7.70;;;;;;;5.68;66.16;99942.03;4959294;28;20412;-83
2021/11/25 03:43:58;;;;;;;8.90;7.20;;;;;;;5.74;66.69;99948.34;4963129;28;20062;-82
2021/11/25 03:46:33;;;;;;;9.30;8.18;;;;;;;5.72;66.35;99939.53;4960422;28;20492;-83
2021/11/25 03:49:01;;;;;;;8.80;6.53;;;;;;;5.82;66.28;99940.22;4959417;28;20051;-83
2021/11/25 03:51:28;;;;;;;9.60;7.70;;;;;;;5.86;66.22;99934.91;4968520;28;20055;-83
2021/11/25 03:53:56;;;;;;;10.88;8.25;;;;;;;5.86;66.22;99930.22;4955800;29;20066;-83
2021/11/25 03:56:23;;;;;;;11.82;8.40;;;;;;;5.89;65.83;99937.06;4955790;29;20058;-83
2021/11/25 03:58:51;;;;;;;10.65;8.35;;;;;;;5.93;65.70;99938.13;4959793;28;20050;-83
2021/11/25 04:01:19;;;;;;;11.57;8.27;;;;;;;5.90;65.37;99930.44;4943752;29;20055;-82
2021/11/25 04:03:48;;;;;;;11.25;8.65;;;;;;;5.92;65.75;99930.94;4945866;28;20051;-83
2021/11/25 04:06:16;;;;;;;10.68;8.52;;;;;;;5.99;65.87;99931.44;4955226;28;20055;-83
2021/11/25 04:08:43;;;;;;;12.05;8.45;;;;;;;6.02;65.88;99930.84;4960453;28;20047;-82
2021/11/25 04:11:10;;;;;;;14.05;8.50;;;;;;;5.95;65.61;99927.63;4971208;28;20488;-83
2021/11/25 04:13:38;;;;;;;13.75;8.57;;;;;;;6.00;65.91;99923.97;4955981;29;20074;-83
2021/11/25 04:16:06;;;;;;;11.93;9.35;;;;;;;6.04;66.01;99906.50;4963120;28;20054;-83
2021/11/25 04:18:33;;;;;;;11.40;7.97;;;;;;;6.00;65.82;99926.75;4970872;28;20061;-83
2021/11/25 04:21:02;;;;;;;12.48;8.35;;;;;;;5.97;65.96;99917.09;4966353;28;20059;-83
2021/11/25 04:23:29;;;;;;;9.05;7.57;;;;;;;5.98;65.51;99915.97;4960448;28;20058;-83
2021/11/25 04:25:57;;;;;;;10.10;7.95;;;;;;;6.02;65.59;99911.50;4955241;29;20066;-83
2021/11/25 04:28:24;;;;;;;11.50;8.25;;;;;;;5.97;65.42;99903.28;4963592;28;20058;-83
2021/11/25 04:35:28;;;;;;;9.45;7.50;;;;;;;5.95;65.25;99900.00;4973075;28;20432;-83
2021/11/25 04:36:31;;;;;;;10.30;7.80;;;;;;;5.83;66.27;99892.09;4958641;28;20074;-82
2021/11/25 04:38:59;;;;;;;;;;;;;;;5.81;66.81;99902.63;4969751;28;20500;-82
2021/11/25 04:41:26;;;;;;;13.80;8.07;;;;;;;5.87;66.35;99897.84;4973254;28;19922;-82
2021/11/25 04:43:53;;;;;;;9.55;7.43;;;;;;;5.90;66.21;99900.84;4960542;28;20055;-82
2021/11/25 04:46:21;;;;;;;9.35;7.25;;;;;;;5.98;66.33;99906.88;4959564;28;20058;-82
2021/11/25 04:48:48;;;;;;;11.65;8.32;;;;;;;5.99;65.95;99908.53;4966504;28;20055;-82
2021/11/25 04:51:16;;;;;;;10.35;7.68;;;;;;;6.02;66.22;99903.19;4971676;28;20490;-82
2021/11/25 04:53:44;;;;;;;11.23;8.05;;;;;;;6.03;66.17;99899.31;4962085;28;20404;-83
2021/11/25 04:56:12;;;;;;;14.25;8.45;;;;;;;6.04;65.62;99903.72;4976696;28;20058;-82
2021/11/25 04:58:40;;;;;;;11.80;7.75;;;;;;;6.10;65.28;99899.75;4961936;28;20444;-83
2021/11/25 05:01:07;;;;;;;9.85;7.40;;;;;;;6.11;65.53;99897.84;4958307;29;20055;-82
2021/11/25 05:03:35;;;;;;;12.68;8.38;;;;;;;6.12;65.78;99884.84;4976113;28;20135;-82
2021/11/25 05:06:03;;;;;;;10.75;8.20;;;;;;;6.10;66.11;99885.13;4971670;28;20063;-82
2021/11/25 05:08:31;;;;;;;10.18;8.23;;;;;;;6.09;66.12;99883.50;4962336;28;20066;-82
2021/11/25 05:11:02;;;;;;;10.95;7.78;;;;;;;6.16;65.40;99883.94;4964185;28;20401;-83
2021/11/25 05:13:29;;;;;;;11.57;7.68;;;;;;;6.19;65.17;99872.25;4943586;29;20058;-83
2021/11/25 05:15:57;;;;;;;9.73;8.18;;;;;;;6.13;65.30;99869.88;4956171;28;20377;-83
2021/11/25 05:18:25;;;;;;;12.57;9.18;;;;;;;6.07;65.32;99869.97;4964673;28;20059;-82
2021/11/25 05:20:52;;;;;;;11.05;8.40;;;;;;;5.98;65.20;99866.22;4957666;29;20492;-83
2021/11/25 05:23:20;;;;;;;12.02;8.82;;;;;;;5.90;65.41;99864.13;4948513;28;20074;-83
2021/11/25 05:25:47;;;;;;;10.93;8.40;;;;;;;5.76;66.30;99868.72;4970579;28;20070;-83
2021/11/25 05:28:16;;;;;;;11.88;8.55;;;;;;;5.76;66.51;99865.97;4977854;28;20059;-83
2021/11/25 05:30:43;;;;;;;10.73;8.65;;;;;;;5.55;67.10;99884.75;4965799;28;20058;-82
2021/11/25 05:33:11;;;;;;;11.95;8.63;;;;;;;5.62;67.61;99886.00;4958992;28;20059;-83
2021/11/25 05:35:38;;;;;;;12.65;9.23;;;;;;;5.60;67.52;99874.44;4962719;28;20062;-83
2021/11/25 05:38:06;;;;;;;10.65;8.35;;;;;;;5.62;67.63;99874.97;4958273;28;20062;-82
2021/11/25 05:40:33;;;;;;;11.35;8.77;;;;;;;5.76;67.42;99871.50;4961575;28;20051;-83
2021/11/25 05:43:00;;;;;;;9.88;8.68;;;;;;;5.82;67.27;99864.78;4958727;29;20512;-83
2021/11/25 05:45:29;;;;;;;10.82;8.05;;;;;;;5.92;67.24;99861.84;4958182;29;20051;-83
2021/11/25 05:47:56;;;;;;;13.35;9.63;;;;;;;5.86;66.61;99860.31;4959256;29;20059;-83
2021/11/25 05:50:26;;;;;;;11.93;8.90;;;;;;;5.79;66.29;99862.59;4967238;28;20055;-83
2021/11/25 05:52:56;;;;;;;11.50;8.52;;;;;;;5.71;66.49;99861.31;4962588;28;20404;-83
2021/11/25 05:55:26;;;;;;;13.00;9.90;;;;;;;5.63;66.09;99864.75;4962424;28;20047;-83
2021/11/25 05:57:54;;;;;;;14.10;9.95;;;;;;;5.53;66.14;99860.19;4957162;29;20051;-83
2021/11/25 06:00:22;;;;;;;14.02;9.38;;;;;;;5.47;66.24;99851.13;4970360;28;20385;-82
2021/11/25 06:02:51;;;;;;;12.90;9.68;;;;;;;5.35;66.48;99855.44;4969619;28;20047;-82
2021/11/25 06:05:22;;;;;;;14.03;10.00;;;;;;;5.35;66.29;99855.44;4956572;29;20062;-82
2021/11/25 06:07:50;;;;;;;13.15;9.63;;;;;;;5.30;66.70;99856.31;4958465;28;20051;-82
2021/11/25 06:10:20;;;;;;;14.68;10.65;;;;;;;5.21;66.71;99853.38;4967289;28;20050;-82
2021/11/25 06:12:48;;;;;;;14.75;10.85;;;;;;;5.11;67.10;99852.69;4957501;28;20047;-82
2021/11/25 06:15:16;;;;;;;14.40;10.77;;;;;;;5.02;66.79;99856.09;4967046;28;20501;-82
2021/11/25 06:17:43;;;;;;;13.93;10.00;;;;;;;4.94;66.88;99853.97;4974796;28;20050;-83
2021/11/25 06:20:14;;;;;;;15.27;10.68;;;;;;;4.82;66.92;99846.06;4974778;28;20065;-83
2021/11/25 06:22:43;;;;;;;15.13;10.98;;;;;;;4.73;66.93;99849.78;4952818;28;20050;-83
2021/11/25 06:25:12;;;;;;;20.17;12.10;;;;;;;4.64;67.12;99849.56;4974169;28;20046;-82
2021/11/25 06:27:40;;;;;;;16.45;11.32;;;;;;;4.54;67.00;99842.22;4967921;28;20394;-82
2021/11/25 06:30:10;;;;;;;16.15;11.70;;;;;;;4.46;67.28;99838.13;4950620;29;20409;-82
2021/11/25 06:32:38;;;;;;;14.70;11.00;;;;;;;4.38;67.31;99826.91;4969727;28;20066;-82
2021/11/25 06:35:09;;;;;;;16.30;11.45;;;;;;;4.30;67.78;99833.84;4967399;28;20508;-82
2021/11/25 06:37:38;;;;;;;18.17;12.27;;;;;;;4.20;67.52;99831.19;4957402;29;20055;-82
2021/11/25 06:40:08;;;;;;;19.48;12.43;;;;;;;4.12;68.13;99834.59;4961883;28;20517;-82
2021/11/25 06:42:35;;;;;;;17.48;12.65;;;;;;;4.00;68.47;99823.91;4966141;28;20062;-82
2021/11/25 06:45:03;;;;;;;21.15;12.93;;;;;;;3.92;68.72;99828.09;4954012;28;20055;-82
2021/11/25 06:47:31;;;;;;;17.02;12.07;;;;;;;3.89;68.77;99834.19;4964215;28;20058;-81
2021/11/25 06:49:58;;;;;;;19.13;13.35;;;;;;;3.80;69.02;99841.38;4956072;28;20047;-82
2021/11/25 06:52:26;;;;;;;17.92;12.57;;;;;;;3.79;68.93;99834.25;4959949;28;20396;-82
2021/11/25 07:02:59;;;;;;;;;;;;;;;;;;;;;
2021/11/25 08:22:45;;;;;;;15.65;8.85;;;;;;;10.54;51.34;99858.25;5038855;23;20045;-66
2021/11/25 08:25:13;;;;;;;10.77;9.00;;;;;;;11.59;48.26;99855.13;5045131;28;20061;-64
2021/11/25 08:27:40;;;;;;;10.48;8.98;;;;;;;12.18;46.81;99841.13;5053821;28;20057;-65
2021/11/25 08:30:13;;;;;;;10.85;8.52;;;;;;;12.90;45.19;99840.13;5052689;28;20064;-65
2021/11/25 08:32:41;;;;;;;10.20;8.82;;;;;;;13.51;43.62;99839.41;5052574;28;20049;-64
2021/11/25 08:35:12;;;;;;;11.25;8.40;;;;;;;14.01;41.81;99841.78;5050686;28;20068;-65
2021/11/25 08:37:39;;;;;;;10.73;8.50;;;;;;;14.54;40.84;99840.94;5054684;28;20052;-65
2021/11/25 08:40:11;;;;;;;10.57;8.63;;;;;;;15.21;39.07;99839.19;5052759;28;20053;-65
2021/11/25 08:42:39;;;;;;;9.63;8.60;;;;;;;15.62;38.57;99827.75;5053766;28;20079;-65
2021/11/25 08:45:07;;;;;;;10.27;8.85;;;;;;;16.56;36.89;99828.66;5049771;28;20056;-64
2021/11/25 08:47:35;;;;;;;10.73;8.55;;;;;;;17.28;36.57;99824.38;5053024;28;20065;-65
2021/11/25 08:50:02;;;;;;;9.95;8.25;;;;;;;17.30;37.63;99829.63;5054015;28;20069;-64
2021/11/25 08:52:30;;;;;;;10.35;8.15;;;;;;;17.88;34.96;99820.13;5052437;28;20053;-64
2021/11/25 08:54:57;;;;;;;10.13;8.88;;;;;;;18.00;33.63;99817.09;5053420;28;20053;-64
2021/11/25 08:57:26;;;;;;;9.77;8.77;;;;;;;18.18;32.70;99815.31;5054013;28;20056;-64
2021/11/25 08:59:54;;;;;;;10.07;8.98;;;;;;;18.64;33.25;99814.28;5046617;28;20056;-65
2021/11/25 09:02:21;;;;;;;9.27;8.25;;;;;;;18.97;31.66;99807.81;5048892;28;20064;-65
2021/11/25 09:04:48;;;;;;;10.75;9.65;;;;;;;19.01;31.74;99808.66;5051361;28;20490;-65
2021/11/25 09:07:16;;;;;;;10.65;9.27;;;;;;;17.81;31.92;99809.56;5052164;28;20489;-65
2021/11/25 09:09:44;;;;;;;10.48;9.23;;;;;;;17.57;32.83;99805.16;5050674;28;20112;-65
2021/11/25 09:12:11;;;;;;;11.13;10.02;;;;;;;17.67;32.17;99793.25;5026609;28;20072;-66
2021/11/25 09:14:40;;;;;;;13.25;9.18;;;;;;;17.93;32.32;99784.00;5052278;28;20453;-66
2021/11/25 09:17:08;;;;;;;11.68;9.77;;;;;;;17.22;33.38;99794.94;5052288;28;20493;-65
2021/11/25 09:19:38;;;;;;;9.88;8.88;;;;;;;15.92;34.74;99802.00;5054073;28;20547;-65
2021/11/25 09:22:05;;;;;;;12.98;10.43;;;;;;;17.46;32.99;99782.47;5067998;28;20079;-65
2021/11/25 09:24:32;;;;;;;12.82;10.27;;;;;;;18.56;32.08;99781.53;5059631;28;20063;-66
2021/11/25 09:27:02;;;;;;;11.68;10.23;;;;;;;17.37;31.36;99793.19;5069110;28;20052;-65
2021/11/25 09:29:31;;;;;;;11.60;10.10;;;;;;;17.72;31.37;99786.47;5060799;28;20532;-65
2021/11/25 09:32:00;;;;;;;13.32;10.50;;;;;;;19.67;29.54;99785.41;5072062;28;20149;-66
2021/11/25 09:34:28;;;;;;;10.15;9.15;;;;;;;20.43;27.77;99792.28;5071635;28;20052;-64
2021/11/25 09:36:55;;;;;;;10.73;8.77;;;;;;;20.08;28.06;99788.91;5073539;28;20056;-64
2021/11/25 09:39:25;;;;;;;10.27;9.07;;;;;;;19.80;28.03;99792.41;5066407;28;20348;-64
2021/11/25 09:41:53;;;;;;;10.20;9.18;;;;;;;20.81;27.08;99785.19;5055262;28;20053;-65
2021/11/25 09:44:21;;;;;;;15.35;11.27;;;;;;;20.75;27.82;99789.59;5057265;28;20049;-65
2021/11/25 09:46:53;;;;;;;9.20;8.25;;;;;;;20.62;26.89;99789.16;5052962;28;20063;-65
2021/11/25 09:49:24;;;;;;;9.82;7.70;;;;;;;20.49;26.60;99787.88;5062841;28;20083;-65
2021/11/25 09:51:54;;;;;;;9.43;8.20;;;;;;;18.44;28.84;99796.72;5071526;28;20052;-65
2021/11/25 09:54:21;;;;;;;;;;;;;;;16.32;31.63;99798.84;5071424;28;20044;-65
2021/11/25 09:56:50;;;;;;;9.98;8.95;;;;;;;16.38;33.39;99803.00;5072087;28;20454;-65
2021/11/25 09:59:18;;;;;;;10.32;9.32;;;;;;;15.80;33.34;99811.38;5064445;28;20532;-65
2021/11/25 10:01:46;;;;;;;11.77;9.50;;;;;;;14.22;36.06;99824.00;5072199;28;20063;-65
2021/11/25 10:04:13;;;;;;;14.63;10.68;;;;;;;13.53;37.48;99818.28;5049710;28;20064;-65
2021/11/25 10:06:54;;;;;;;11.27;9.45;;;;;;;12.34;39.75;99827.34;5066461;28;20213;-64
2021/11/25 10:09:37;;;;;;;13.10;10.55;;;;;;;12.28;40.16;99830.69;5067133;28;20501;-64
2021/11/25 10:12:36;;;;;;;11.57;9.80;;;;;;;11.66;41.30;99812.75;5060965;28;20060;-64
2021/11/25 10:15:24;;;;;;;11.63;10.07;;;;;;;11.19;43.23;99816.41;5065604;28;20417;-64
2021/11/25 10:17:53;;;;;;;11.80;10.68;;;;;;;10.47;44.26;99813.34;5070693;28;20056;-64
2021/11/25 10:20:21;;;;;;;13.65;11.18;;;;;;;10.52;44.55;99827.13;5064673;28;20068;-64
2021/11/25 10:23:17;;;;;;;11.50;9.90;;;;;;;10.31;45.19;99831.69;5060564;28;20536;-64
2021/11/25 10:25:49;;;;;;;11.35;9.90;;;;;;;10.10;46.06;99829.56;5067713;28;20056;-64
2021/11/25 10:28:23;;;;;;;12.88;10.10;;;;;;;9.65;47.35;99820.69;5065573;28;20061;-64
2021/11/25 10:30:52;;;;;;;11.68;10.38;;;;;;;9.49;47.75;99820.31;5066991;28;20490;-64
2021/11/25 10:33:27;;;;;;;10.80;9.70;;;;;;;9.67;47.19;99813.66;5061220;28;20420;-64
2021/11/25 10:39:48;;;;;;;11.68;10.13;;;;;;;9.57;47.42;99829.81;4969231;28;20075;-64
2021/11/25 10:42:17;;;;;;;10.60;9.50;;;;;;;9.26;48.11;99820.44;5069076;28;20068;-64
2021/11/25 10:44:50;;;;;;;10.48;9.43;;;;;;;9.38;47.90;99821.75;5059145;28;20381;-64
2021/11/25 10:47:19;;;;;;;12.65;10.15;;;;;;;9.12;48.58;99816.94;5060298;28;20052;-65
2021/11/25 10:49:51;;;;;;;12.70;10.02;;;;;;;9.04;49.49;99803.81;5068779;28;20071;-65
2021/11/25 10:52:36;;;;;;;12.40;9.88;;;;;;;9.31;48.69;99811.13;5067615;28;20056;-65
2021/11/25 10:55:07;;;;;;;9.73;8.27;;;;;;;9.38;48.81;99803.13;5066976;28;20162;-64
2021/11/25 10:57:41;;;;;;;11.82;9.75;;;;;;;9.48;48.51;99802.00;5064407;28;20413;-65
2021/11/25 11:00:13;;;;;;;11.25;9.07;;;;;;;9.45;47.88;99810.97;5051282;28;20457;-65
2021/11/25 11:02:41;;;;;;;11.35;9.20;;;;;;;9.50;48.35;99821.97;5050753;28;20056;-65
2021/11/25 11:05:13;;;;;;;10.60;9.50;;;;;;;9.30;49.21;99815.03;5056613;28;20075;-65
2021/11/25 11:07:44;;;;;;;11.52;9.85;;;;;;;9.40;48.17;99806.38;5062950;28;20063;-65
2021/11/25 11:10:21;;;;;;;11.90;10.30;;;;;;;9.09;48.72;99809.22;5064470;28;20052;-65
2021/11/25 11:12:58;;;;;;;12.93;10.90;;;;;;;8.97;49.42;99806.25;5062465;28;20056;-65
2021/11/25 11:15:29;;;;;;;14.27;12.77;;;;;;;8.86;49.63;99806.53;5069588;28;20059;-65
2021/11/25 11:20:47;;;;;;;13.57;12.18;;;;;;;9.26;49.69;99797.34;5021233;28;20064;-65
2021/11/25 11:23:16;;;;;;;13.60;12.23;;;;;;;9.47;48.47;99792.00;5066773;28;20059;-65
2021/11/25 11:25:46;;;;;;;14.57;12.98;;;;;;;9.50;48.73;99797.75;5061392;28;20071;-65
2021/11/25 11:28:14;;;;;;;16.25;13.10;;;;;;;9.51;49.09;99790.22;5065901;28;20462;-65
2021/11/25 11:30:43;;;;;;;14.00;12.55;;;;;;;9.64;48.72;99792.06;5064402;28;20060;-65
2021/11/25 11:33:12;;;;;;;13.75;12.32;;;;;;;9.59;48.65;99789.41;5056557;28;20072;-65
2021/11/25 11:35:41;;;;;;;16.05;13.15;;;;;;;9.51;48.83;99795.78;5051942;28;20049;-65
2021/11/25 11:38:13;;;;;;;13.83;12.33;;;;;;;9.43;48.84;99791.88;5056656;28;20083;-65
2021/11/25 11:40:42;;;;;;;16.25;13.50;;;;;;;9.38;48.91;99805.88;5055558;28;20171;-61
2021/11/25 11:43:12;;;;;;;15.90;14.10;;;;;;;9.10;49.04;99819.22;5061234;28;20061;-63
2021/11/25 11:45:40;;;;;;;14.98;12.63;;;;;;;8.70;49.52;99808.06;5048894;28;20056;-67
2021/11/25 11:48:12;;;;;;;15.30;12.60;;;;;;;8.47;50.84;99804.50;5061891;28;20055;-68
2021/11/25 11:50:44;;;;;;;15.35;12.82;;;;;;;8.46;50.27;99798.16;5054398;28;20056;-65
2021/11/25 11:53:17;;;;;;;14.52;12.00;;;;;;;8.38;50.56;99786.94;5062079;28;20056;-65
2021/11/25 11:55:46;;;;;;;17.13;12.85;;;;;;;8.47;50.79;99777.56;5064993;28;20057;-64
2021/11/25 11:58:49;;;;;;;16.38;13.30;;;;;;;8.48;51.32;99765.34;5061496;28;20524;-64
2021/11/25 12:01:23;;;;;;;18.08;14.35;;;;;;;8.45;50.87;99765.16;5014369;28;20060;-64
2021/11/25 12:03:53;;;;;;;17.58;13.68;;;;;;;8.57;50.83;99761.78;5064839;28;20536;-64
2021/11/25 12:06:40;;;;;;;17.38;13.18;;;;;;;8.56;50.66;99762.91;5068559;28;20052;-63
2021/11/25 12:09:35;;;;;;;17.05;13.90;;;;;;;8.59;49.85;99765.03;5042516;28;20405;-63
2021/11/25 12:12:13;;;;;;;16.80;13.48;;;;;;;8.41;50.71;99767.75;5065817;28;20057;-63
2021/11/25 12:14:51;;;;;;;19.27;14.30;;;;;;;8.50;50.55;99765.00;5068988;28;20493;-63
2021/11/25 12:17:28;;;;;;;15.52;12.45;;;;;;;8.24;51.35;99767.59;5047391;28;20083;-63
2021/11/25 12:19:57;;;;;;;17.98;13.82;;;;;;;8.07;51.70;99757.22;5068683;28;20048;-63
2021/11/25 12:22:28;;;;;;;17.75;13.98;;;;;;;8.22;51.94;99758.78;5064197;28;20057;-63
2021/11/25 12:24:59;;;;;;;18.25;14.63;;;;;;;8.00;52.13;99757.66;5048782;28;20053;-63
2021/11/25 12:27:37;;;;;;;18.00;14.38;;;;;;;8.17;51.62;99754.19;5049360;28;20053;-63
2021/11/25 12:30:12;;;;;;;20.08;15.45;;;;;;;7.86;53.25;99745.78;5049360;28;20494;-63
2021/11/25 12:32:54;;;;;;;16.27;14.00;;;;;;;8.05;52.81;99732.56;5050009;28;20525;-63
2021/11/25 12:35:41;;;;;;;17.45;14.35;;;;;;;8.08;52.43;99736.63;5048020;28;20053;-63
2021/11/25 12:38:12;;;;;;;17.42;13.77;;;;;;;7.84;53.78;99731.44;5049272;28;20061;-63
2021/11/25 12:40:52;;;;;;;18.42;14.10;;;;;;;7.90;53.91;99730.16;5049872;28;20445;-63
2021/11/25 12:43:21;;;;;;;17.23;14.38;;;;;;;7.92;53.42;99725.94;5049655;28;20069;-63
2021/11/25 12:45:52;;;;;;;19.13;15.50;;;;;;;8.08;53.19;99739.41;5048404;28;20045;-63
2021/11/25 12:48:28;;;;;;;19.15;14.52;;;;;;;7.68;54.63;99729.00;5048393;28;20474;-63
2021/11/25 12:51:01;;;;;;;18.83;15.30;;;;;;;8.01;54.42;99742.63;5048606;28;20466;-63
2021/11/25 12:53:32;;;;;;;19.02;15.60;;;;;;;8.19;53.53;99737.19;5050146;28;20469;-64
2021/11/25 12:56:04;;;;;;;18.45;15.93;;;;;;;8.13;54.05;99730.97;5049799;28;20215;-64
2021/11/25 12:58:34;;;;;;;21.02;16.38;;;;;;;8.11;54.65;99736.03;5049575;28;20067;-64
2021/11/25 13:01:04;;;;;;;18.70;15.00;;;;;;;8.09;54.38;99729.97;5051335;28;20057;-63
2021/11/25 13:03:32;;;;;;;19.55;17.02;;;;;;;8.13;55.38;99723.47;5050415;28;20064;-63
2021/11/25 13:06:00;;;;;;;22.17;16.98;;;;;;;8.35;54.85;99719.03;5048576;28;20380;-63
2021/11/25 13:08:33;;;;;;;23.63;18.73;;;;;;;8.39;55.76;99727.53;5050782;28;20072;-63
2021/11/25 13:11:02;;;;;;;24.15;19.15;;;;;;;8.44;55.12;99727.41;5045953;28;20422;-63
2021/11/25 13:13:33;;;;;;;21.08;17.33;;;;;;;8.42;53.98;99730.53;5047106;28;20141;-63
2021/11/25 13:16:05;;;;;;;22.40;18.20;;;;;;;8.26;56.23;99737.59;5044013;28;20049;-56
2021/11/25 13:18:47;;;;;;;21.55;18.13;;;;;;;7.55;59.29;99729.06;5050926;28;20049;-64
2021/11/25 13:21:17;;;;;;;22.15;18.23;;;;;;;8.03;56.23;99732.06;5053286;28;20080;-64